createdAt,value
2022-11-16T00:01:57.324Z,97431.53
2022-11-16T00:04:24.036Z,97431.06
2022-11-16T00:06:51.029Z,97432.50
2022-11-16T00:09:23.620Z,97433.88
2022-11-16T00:11:53.111Z,97443.97
2022-11-16T00:14:20.934Z,97447.00
2022-11-16T00:16:47.770Z,97444.28
2022-11-16T00:19:19.608Z,97447.00
2022-11-16T00:24:41.514Z,97447.59
2022-11-16T00:27:08.318Z,97451.19
2022-11-16T00:29:36.200Z,97442.56
2022-11-16T00:32:04.398Z,97447.16
2022-11-16T00:34:34.111Z,97443.19
2022-11-16T00:37:00.872Z,97450.25
2022-11-16T00:39:27.454Z,97455.47
2022-11-16T00:41:54.091Z,97448.91
2022-11-16T00:44:20.866Z,97448.97
2022-11-16T00:46:48.505Z,97459.06
2022-11-16T00:49:15.502Z,97459.41
2022-11-16T00:51:42.763Z,97452.91
2022-11-16T00:55:02.841Z,97457.31
2022-11-16T00:57:36.274Z,97458.19
2022-11-16T01:00:09.120Z,97458.44
2022-11-16T01:02:35.713Z,97453.47
2022-11-16T01:05:02.333Z,97466.34
2022-11-16T01:07:28.990Z,97471.09
2022-11-16T01:09:55.896Z,97466.22
2022-11-16T01:12:22.633Z,97463.44
2022-11-16T01:14:49.287Z,97454.97
2022-11-16T01:17:18.743Z,97453.84
2022-11-16T01:19:45.738Z,97457.88
2022-11-16T01:22:12.551Z,97448.38
2022-11-16T01:24:46.405Z,97452.44
2022-11-16T01:27:13.837Z,97449.19
2022-11-16T01:29:41.262Z,97447.78
2022-11-16T01:32:07.910Z,97451.63
2022-11-16T01:34:35.007Z,97445.06
2022-11-16T01:37:01.723Z,97437.94
2022-11-16T01:39:28.346Z,97446.34
2022-11-16T01:41:55.074Z,97447.34
2022-11-16T01:44:33.918Z,97442.41
2022-11-16T01:47:11.128Z,97439.69
2022-11-16T01:49:45.146Z,97433.78
2022-11-16T01:52:34.161Z,97429.38
2022-11-16T01:55:02.233Z,97427.16
2022-11-16T01:57:42.093Z,97426.91
2022-11-16T02:00:11.653Z,97427.22
2022-11-16T02:02:38.509Z,97416.59
2022-11-16T02:05:06.273Z,97411.22
2022-11-16T02:08:14.680Z,97401.75
2022-11-16T02:10:55.894Z,97398.88
2022-11-16T02:13:35.814Z,97399.28
2022-11-16T02:16:11.722Z,97410.53
2022-11-16T02:18:45.528Z,97411.31
2022-11-16T02:28:42.955Z,97428.34
2022-11-16T02:31:17.347Z,97435.13
2022-11-16T02:33:46.967Z,97433.22
2022-11-16T02:36:19.427Z,97438.66
2022-11-16T02:38:54.504Z,97434.50
2022-11-16T02:41:24.513Z,97426.88
2022-11-16T02:44:00.323Z,97426.81
2022-11-16T02:46:31.236Z,97413.50
2022-11-16T02:49:02.535Z,97410.75
2022-11-16T02:51:33.460Z,97421.16
2022-11-16T02:54:18.019Z,97413.03
2022-11-16T02:56:47.629Z,97426.16
2022-11-16T02:59:17.619Z,97419.66
2022-11-16T03:02:08.112Z,97421.81
2022-11-16T03:04:48.467Z,97425.16
2022-11-16T03:07:20.005Z,97420.25
2022-11-16T03:09:50.208Z,97424.34
2022-11-16T03:12:22.333Z,97421.66
2022-11-16T03:14:54.118Z,97419.00
2022-11-16T03:17:29.415Z,97409.50
2022-11-16T03:20:24.138Z,97411.44
2022-11-16T03:23:26.423Z,97404.38
2022-11-16T03:25:57.252Z,97404.66
2022-11-16T03:28:36.770Z,97409.31
2022-11-16T03:31:13.440Z,97393.00
2022-11-16T03:33:47.984Z,97397.13
2022-11-16T03:36:28.205Z,97398.22
2022-11-16T03:39:02.438Z,97396.31
2022-11-16T03:41:31.298Z,97393.31
2022-11-16T03:43:59.763Z,97392.75
2022-11-16T03:46:26.641Z,97387.63
2022-11-16T03:48:59.067Z,97395.06
2022-11-16T03:51:54.147Z,97394.50
2022-11-16T03:54:22.292Z,97388.53
2022-11-16T03:56:50.059Z,97390.97
2022-11-16T03:59:16.703Z,97390.97
2022-11-16T04:01:44.939Z,97390.16
2022-11-16T04:04:32.634Z,97385.84
2022-11-16T04:07:37.577Z,97381.50
2022-11-16T04:10:23.158Z,97376.88
2022-11-16T04:13:08.140Z,97381.50
2022-11-16T04:15:53.594Z,97381.53
2022-11-16T04:18:38.763Z,97389.75
2022-11-16T04:28:24.606Z,97385.47
2022-11-16T04:31:17.325Z,97376.75
2022-11-16T04:34:03.448Z,97384.41
2022-11-16T04:36:48.976Z,97386.56
2022-11-16T04:39:15.598Z,97378.44
2022-11-16T04:42:01.200Z,97380.66
2022-11-16T04:44:47.757Z,97383.38
2022-11-16T04:47:14.580Z,97380.13
2022-11-16T04:49:41.234Z,97384.75
2022-11-16T04:52:08.959Z,97387.19
2022-11-16T04:54:35.842Z,97373.03
2022-11-16T04:57:02.662Z,97378.75
2022-11-16T04:59:29.325Z,97389.31
2022-11-16T05:02:10.862Z,97382.53
2022-11-16T05:04:42.295Z,97383.34
2022-11-16T05:07:14.161Z,97387.13
2022-11-16T05:09:46.785Z,97388.47
2022-11-16T05:12:25.208Z,97387.09
2022-11-16T05:14:52.747Z,97384.91
2022-11-16T05:17:21.800Z,97382.16
2022-11-16T05:20:10.724Z,97381.03
2022-11-16T05:22:40.447Z,97383.47
2022-11-16T05:25:52.179Z,97379.41
2022-11-16T05:28:20.274Z,97373.44
2022-11-16T05:30:46.964Z,97377.25
2022-11-16T05:33:15.408Z,97375.34
2022-11-16T05:35:41.994Z,97379.41
2022-11-16T05:38:08.991Z,97376.69
2022-11-16T05:40:35.648Z,97372.34
2022-11-16T05:43:02.244Z,97368.81
2022-11-16T05:45:28.861Z,97368.00
2022-11-16T05:47:56.143Z,97356.00
2022-11-16T05:50:22.780Z,97365.81
2022-11-16T05:52:49.700Z,97369.34
2022-11-16T05:55:16.527Z,97375.88
2022-11-16T05:57:43.247Z,97371.25
2022-11-16T06:00:10.633Z,97370.22
2022-11-16T06:02:37.372Z,97375.66
2022-11-16T06:05:04.525Z,97371.84
2022-11-16T06:07:31.252Z,97378.63
2022-11-16T06:09:57.914Z,97381.09
2022-11-16T06:12:24.554Z,97382.72
2022-11-16T06:15:13.679Z,97382.44
2022-11-16T06:29:22.338Z,97369.38
2022-11-16T06:31:50.540Z,97380.78
2022-11-16T06:34:17.302Z,97389.50
2022-11-16T06:36:46.806Z,97388.66
2022-11-16T06:39:29.358Z,97384.88
2022-11-16T06:41:57.622Z,97391.34
2022-11-16T06:44:24.383Z,97376.09
2022-11-16T06:46:50.999Z,97389.66
2022-11-16T06:49:17.937Z,97383.66
2022-11-16T07:03:03.531Z,97380.63
2022-11-16T07:05:31.292Z,97383.34
2022-11-16T07:07:58.441Z,97380.34
2022-11-16T07:10:26.167Z,97375.97
2022-11-16T07:12:52.984Z,97380.56
2022-11-16T07:15:19.746Z,97379.75
2022-11-16T07:17:46.814Z,97381.34
2022-11-16T07:20:13.448Z,97380.00
2022-11-16T07:26:46.985Z,97381.81
2022-11-16T07:29:15.241Z,97379.34
2022-11-16T07:31:41.803Z,97377.13
2022-11-16T07:34:08.451Z,97376.56
2022-11-16T07:36:35.217Z,97380.06
2022-11-16T07:39:02.307Z,97375.97
2022-11-16T07:41:29.005Z,97383.88
2022-11-16T07:43:56.885Z,97380.63
2022-11-16T07:49:16.071Z,97384.94
2022-11-16T08:02:27.126Z,97383.69
2022-11-16T08:04:55.985Z,97389.38
2022-11-16T08:07:25.618Z,97384.50
2022-11-16T08:09:52.370Z,97377.94
2022-11-16T08:12:19.316Z,97385.31
2022-11-16T08:14:46.594Z,97393.47
2022-11-16T08:17:15.183Z,97387.19
2022-11-16T08:33:40.915Z,97380.84
2022-11-16T08:36:13.941Z,97379.13
2022-11-16T08:39:05.707Z,97379.13
2022-11-16T08:45:40.989Z,97371.44
2022-11-16T08:51:26.785Z,97380.69
2022-11-16T09:01:32.587Z,97380.88
2022-11-16T09:07:12.023Z,97388.63
2022-11-16T09:09:38.727Z,97385.25
2022-11-16T09:12:10.029Z,97387.88
2022-11-16T09:14:36.702Z,97384.00
2022-11-16T09:17:03.840Z,97384.22
2022-11-16T09:23:08.808Z,97378.34
2022-11-16T09:25:35.697Z,97378.88
2022-11-16T09:28:02.424Z,97367.81
2022-11-16T09:30:29.587Z,97374.88
2022-11-16T09:32:59.241Z,97363.97
2022-11-16T09:35:26.213Z,97367.25
2022-11-16T09:37:53.985Z,97362.59
2022-11-16T09:40:20.931Z,97365.47
2022-11-16T09:43:06.330Z,97364.94
2022-11-16T09:45:33.206Z,97362.44
2022-11-16T09:48:05.159Z,97365.53
2022-11-16T09:50:46.745Z,97367.25
2022-11-16T09:53:32.575Z,97373.78
2022-11-16T09:56:07.092Z,97374.31
2022-11-16T09:59:17.786Z,97363.84
2022-11-16T10:01:57.344Z,97372.00
2022-11-16T10:04:37.061Z,97372.31
2022-11-16T10:07:40.535Z,97364.94
2022-11-16T10:10:14.111Z,97367.09
2022-11-16T10:12:46.345Z,97361.63
2022-11-16T10:15:24.341Z,97366.22
2022-11-16T10:18:13.260Z,97351.16
2022-11-16T10:21:04.042Z,97359.28
2022-11-16T10:23:52.513Z,97358.09
2022-11-16T10:26:25.278Z,97347.75
2022-11-16T10:29:10.573Z,97346.38
2022-11-16T10:32:04.469Z,97339.72
2022-11-16T10:34:49.478Z,97343.97
2022-11-16T10:37:16.286Z,97332.69
2022-11-16T10:39:48.925Z,97332.09
2022-11-16T10:42:35.266Z,97325.44
2022-11-16T10:45:33.216Z,97331.84
2022-11-16T10:48:14.329Z,97342.09
2022-11-16T10:50:49.605Z,97341.47
2022-11-16T10:53:36.641Z,97342.94
2022-11-16T10:56:12.531Z,97337.91
2022-11-16T10:59:00.235Z,97357.09
2022-11-16T11:01:36.651Z,97353.72
2022-11-16T11:04:26.601Z,97343.50
2022-11-16T11:07:23.057Z,97340.06
2022-11-16T11:09:53.870Z,97338.44
2022-11-16T11:12:40.815Z,97344.00
2022-11-16T11:15:26.591Z,97347.44
2022-11-16T11:18:12.618Z,97353.94
2022-11-16T11:20:45.184Z,97356.06
2022-11-16T11:23:17.693Z,97343.59
2022-11-16T11:26:00.504Z,97336.97
2022-11-16T11:28:31.896Z,97350.00
2022-11-16T11:31:26.206Z,97347.16
2022-11-16T11:34:05.377Z,97340.19
2022-11-16T11:36:46.414Z,97334.53
2022-11-16T11:39:13.203Z,97334.41
2022-11-16T11:42:03.490Z,97331.28
2022-11-16T11:44:49.914Z,97314.44
2022-11-16T11:50:24.693Z,97309.81
2022-11-16T11:53:06.612Z,97307.16
2022-11-16T11:55:35.954Z,97301.69
2022-11-16T11:58:05.805Z,97281.25
2022-11-16T12:00:48.655Z,97287.22
2022-11-16T12:03:44.705Z,97283.06
2022-11-16T12:06:42.647Z,97269.41
2022-11-16T12:09:22.717Z,97263.72
2022-11-16T12:12:14.338Z,97258.38
2022-11-16T12:15:01.701Z,97251.88
2022-11-16T12:17:54.897Z,97251.69
2022-11-16T12:20:37.948Z,97260.41
2022-11-16T12:23:25.995Z,97256.66
2022-11-16T12:25:56.814Z,97250.78
2022-11-16T12:28:26.292Z,97254.41
2022-11-16T12:31:17.778Z,97265.63
2022-11-16T12:34:11.908Z,97253.28
2022-11-16T12:37:05.945Z,97255.72
2022-11-16T12:39:54.991Z,97263.50
2022-11-16T12:42:25.245Z,97262.09
2022-11-16T12:44:52.061Z,97249.84
2022-11-16T12:47:37.540Z,97239.09
2022-11-16T12:50:21.523Z,97229.34
2022-11-16T12:53:00.998Z,97220.84
2022-11-16T12:55:46.446Z,97214.06
2022-11-16T12:58:40.641Z,97209.69
2022-11-16T13:01:36.506Z,97222.75
2022-11-16T13:04:06.556Z,97218.19
2022-11-16T13:06:47.717Z,97203.91
2022-11-16T13:09:19.272Z,97199.50
2022-11-16T13:11:51.542Z,97190.34
2022-11-16T13:14:23.821Z,97183.72
2022-11-16T13:16:55.336Z,97170.34
2022-11-16T13:19:22.757Z,97167.31
2022-11-16T13:22:05.013Z,97154.94
2022-11-16T13:24:37.993Z,97153.13
2022-11-16T13:27:13.843Z,97151.97
2022-11-16T13:29:55.753Z,97153.69
2022-11-16T13:32:34.982Z,97158.56
2022-11-16T13:35:05.402Z,97155.84
2022-11-16T13:37:39.294Z,97147.03
2022-11-16T13:40:06.057Z,97145.59
2022-11-16T13:42:36.272Z,97149.63
2022-11-16T13:45:17.767Z,97152.56
2022-11-16T13:47:53.244Z,97143.44
2022-11-16T13:50:23.638Z,97135.22
2022-11-16T13:53:46.144Z,97115.47
2022-11-16T13:55:46.508Z,97113.72
2022-11-16T13:58:21.216Z,97118.06
2022-11-16T14:01:00.706Z,97116.13
2022-11-16T14:03:41.349Z,97109.34
2022-11-16T14:06:20.715Z,97107.13
2022-11-16T14:08:50.412Z,97104.38
2022-11-16T14:11:29.380Z,97098.13
2022-11-16T14:13:56.445Z,97105.19
2022-11-16T14:16:23.494Z,97095.84
2022-11-16T14:19:01.807Z,97101.34
2022-11-16T14:22:07.424Z,97089.09
2022-11-16T14:24:47.776Z,97086.16
2022-11-16T14:27:38.632Z,97078.16
2022-11-16T14:30:22.903Z,97065.44
2022-11-16T14:32:52.922Z,97059.88
2022-11-16T14:35:25.785Z,97066.09
2022-11-16T14:38:06.528Z,97057.38
2022-11-16T14:40:43.228Z,97066.09
2022-11-16T14:43:20.291Z,97047.22
2022-11-16T14:45:57.586Z,97044.00
2022-11-16T14:48:28.080Z,97041.09
2022-11-16T14:51:08.682Z,97041.09
2022-11-16T14:53:41.969Z,97038.66
2022-11-16T14:56:15.166Z,97026.13
2022-11-16T14:58:59.165Z,97034.19
2022-11-16T15:01:31.784Z,97022.44
2022-11-16T15:04:05.332Z,97024.66
2022-11-16T15:06:48.738Z,97012.00
2022-11-16T15:09:27.740Z,97014.72
2022-11-16T15:12:13.362Z,97013.13
2022-11-16T15:14:48.000Z,97015.84
2022-11-16T15:17:18.271Z,97015.22
2022-11-16T15:20:20.805Z,97010.25
2022-11-16T15:22:52.197Z,97005.38
2022-11-16T15:25:27.174Z,97005.72
2022-11-16T15:27:55.775Z,96997.81
2022-11-16T15:30:27.380Z,96998.13
2022-11-16T15:32:55.038Z,96994.09
2022-11-16T15:35:31.400Z,96987.81
2022-11-16T15:38:07.508Z,96985.91
2022-11-16T15:40:35.437Z,96975.91
2022-11-16T15:43:05.814Z,96981.38
2022-11-16T15:45:34.011Z,96973.16
2022-11-16T15:48:01.984Z,96969.63
2022-11-16T15:50:29.086Z,96961.91
2022-11-16T15:52:57.435Z,96960.75
2022-11-16T15:55:34.894Z,96960.75
2022-11-16T15:58:28.479Z,96948.53
2022-11-16T16:00:59.089Z,96951.56
2022-11-16T16:03:31.884Z,96937.41
2022-11-16T16:05:58.861Z,96931.94
2022-11-16T16:08:36.945Z,96927.09
2022-11-16T16:11:09.865Z,96923.88
2022-11-16T16:13:41.795Z,96925.63
2022-11-16T16:16:36.568Z,96916.28
2022-11-16T16:19:09.741Z,96915.81
2022-11-16T16:21:43.416Z,96902.94
2022-11-16T16:24:31.710Z,96909.22
2022-11-16T16:26:58.385Z,96908.09
2022-11-16T16:29:28.961Z,96907.75
2022-11-16T16:31:56.222Z,96910.50
2022-11-16T16:34:22.878Z,96902.63
2022-11-16T16:36:49.691Z,96908.91
2022-11-16T16:39:16.585Z,96903.13
2022-11-16T16:41:44.924Z,96896.03
2022-11-16T16:44:15.070Z,96893.78
2022-11-16T16:46:41.851Z,96890.25
2022-11-16T16:49:08.558Z,96884.78
2022-11-16T16:51:36.403Z,96884.59
2022-11-16T16:54:04.128Z,96883.47
2022-11-16T16:56:30.822Z,96879.94
2022-11-16T16:58:57.633Z,96878.34
2022-11-16T17:01:25.515Z,96866.09
2022-11-16T17:03:52.415Z,96865.59
2022-11-16T17:06:19.048Z,96864.00
2022-11-16T17:08:46.126Z,96860.75
2022-11-16T17:11:14.953Z,96864.63
2022-11-16T17:13:42.164Z,96855.09
2022-11-16T17:16:09.138Z,96858.97
2022-11-16T17:18:36.047Z,96854.81
2022-11-16T17:21:06.796Z,96849.81
2022-11-16T17:23:36.025Z,96843.53
2022-11-16T17:26:05.227Z,96845.97
2022-11-16T17:28:32.056Z,96832.78
2022-11-16T17:31:03.704Z,96830.84
2022-11-16T17:33:39.349Z,96840.66
2022-11-16T17:36:09.336Z,96829.72
2022-11-16T17:38:36.364Z,96835.19
2022-11-16T17:41:29.463Z,96832.13
2022-11-16T17:43:56.701Z,96833.78
2022-11-16T17:46:25.757Z,96821.84
2022-11-16T17:48:53.315Z,96824.59
2022-11-16T17:51:22.170Z,96828.56
2022-11-16T17:53:52.382Z,96826.50
2022-11-16T17:56:21.629Z,96822.75
2022-11-16T17:58:50.263Z,96829.03
2022-11-16T18:01:17.173Z,96820.66
2022-11-16T18:03:44.372Z,96818.72
2022-11-16T18:06:17.255Z,96818.09
2022-11-16T18:08:44.702Z,96819.88
2022-11-16T18:11:19.627Z,96811.34
2022-11-16T18:13:47.194Z,96806.53
2022-11-16T18:16:19.230Z,96808.94
2022-11-16T18:18:47.551Z,96802.06
2022-11-16T18:21:20.647Z,96803.16
2022-11-16T18:23:48.217Z,96794.16
2022-11-16T18:26:18.852Z,96787.88
2022-11-16T18:28:46.104Z,96789.00
2022-11-16T18:31:15.762Z,96786.28
2022-11-16T18:33:43.672Z,96782.22
2022-11-16T18:36:12.505Z,96781.13
2022-11-16T18:38:39.870Z,96782.75
2022-11-16T18:41:12.642Z,96785.47
2022-11-16T18:44:03.853Z,96774.53
2022-11-16T18:46:32.840Z,96779.50
2022-11-16T18:49:00.162Z,96765.03
2022-11-16T18:51:27.945Z,96779.03
2022-11-16T18:53:55.391Z,96776.78
2022-11-16T18:56:22.823Z,96774.03
2022-11-16T18:58:52.055Z,96768.56
2022-11-16T19:01:22.010Z,96768.28
2022-11-16T19:03:48.933Z,96760.06
2022-11-16T19:06:17.851Z,96759.56
2022-11-16T19:08:49.019Z,96752.31
2022-11-16T19:11:21.050Z,96749.28
2022-11-16T19:13:53.215Z,96748.78
2022-11-16T19:16:19.956Z,96741.69
2022-11-16T19:18:46.643Z,96735.91
2022-11-16T19:21:15.312Z,96734.31
2022-11-16T19:23:43.919Z,96730.63
2022-11-16T19:26:12.945Z,96726.56
2022-11-16T19:28:41.837Z,96732.03
2022-11-16T19:31:11.505Z,96728.22
2022-11-16T19:33:39.548Z,96717.44
2022-11-16T19:36:11.721Z,96728.03
2022-11-16T19:38:38.737Z,96716.78
2022-11-16T19:41:06.440Z,96708.56
2022-11-16T19:43:34.222Z,96712.63
2022-11-16T19:46:04.990Z,96706.50
2022-11-16T19:48:32.882Z,96710.03
2022-11-16T19:51:07.832Z,96709.53
2022-11-16T19:53:35.454Z,96691.84
2022-11-16T19:56:03.590Z,96698.91
2022-11-16T19:58:32.143Z,96690.09
2022-11-16T20:01:05.578Z,96685.72
2022-11-16T20:03:33.227Z,96681.72
2022-11-16T20:06:10.653Z,96676.72
2022-11-16T20:08:52.359Z,96674.47
2022-11-16T20:11:25.050Z,96668.50
2022-11-16T20:13:53.965Z,96678.97
2022-11-16T20:16:56.625Z,96671.25
2022-11-16T20:19:34.426Z,96655.81
2022-11-16T20:26:10.740Z,96648.75
2022-11-16T20:28:39.564Z,96653.25
2022-11-16T20:31:12.385Z,96644.72
2022-11-16T20:33:39.611Z,96648.41
2022-11-16T20:36:09.067Z,96642.94
2022-11-16T20:38:37.449Z,96650.03
2022-11-16T20:41:18.847Z,96642.13
2022-11-16T20:43:47.703Z,96644.22
2022-11-16T20:46:16.934Z,96633.75
2022-11-16T20:48:44.271Z,96634.41
2022-11-16T20:51:14.734Z,96626.84
2022-11-16T20:56:50.710Z,96618.31
2022-11-16T20:57:55.765Z,96614.31
2022-11-16T21:00:22.640Z,96606.44
2022-11-16T21:12:02.959Z,96588.91
2022-11-16T21:14:34.569Z,96588.41
2022-11-16T21:17:18.976Z,96587.63
2022-11-16T21:20:05.319Z,96582.47
2022-11-16T21:31:26.017Z,96562.69
2022-11-16T21:37:15.356Z,96555.75
2022-11-16T21:39:42.244Z,96554.47
2022-11-16T21:42:13.425Z,96540.00
2022-11-16T22:10:17.379Z,96532.09
2022-11-16T22:12:44.453Z,96532.44
2022-11-16T22:15:11.709Z,96525.03
2022-11-16T22:17:51.402Z,96534.84
2022-11-16T22:20:38.338Z,96527.94
2022-11-16T22:26:19.245Z,96522.31
2022-11-16T22:28:46.151Z,96522.00
2022-11-16T22:31:14.942Z,96524.88
2022-11-16T22:33:42.005Z,96516.53
2022-11-16T22:36:11.510Z,96521.06
2022-11-16T22:38:38.200Z,96520.88
2022-11-16T22:41:05.348Z,96509.16
2022-11-16T22:43:32.824Z,96513.66
2022-11-16T22:46:01.854Z,96502.22
2022-11-16T22:48:49.410Z,96509.28
2022-11-16T22:51:28.358Z,96513.16
2022-11-16T22:54:48.834Z,96510.75
2022-11-16T22:57:17.877Z,96498.88
2022-11-16T22:59:44.618Z,96500.16
2022-11-16T23:02:11.305Z,96493.72
2022-11-16T23:04:38.974Z,96508.19
2022-11-16T23:07:06.140Z,96490.50
2022-11-16T23:09:33.415Z,96488.91
2022-11-16T23:12:18.525Z,96488.75
2022-11-16T23:15:04.418Z,96484.06
2022-11-16T23:17:31.038Z,96484.72
2022-11-16T23:20:18.035Z,96477.81
2022-11-16T23:26:33.549Z,96472.19
2022-11-16T23:29:03.006Z,96467.38
2022-11-16T23:31:30.961Z,96475.69
2022-11-16T23:33:57.654Z,96465.44
2022-11-16T23:36:24.446Z,96460.28
2022-11-16T23:38:51.493Z,96470.91
2022-11-16T23:41:36.826Z,96467.03
2022-11-16T23:44:03.603Z,96469.28
2022-11-16T23:46:34.441Z,96469.94
2022-11-16T23:49:01.531Z,96474.25
2022-11-16T23:55:33.320Z,96453.53
2022-11-16T23:58:00.210Z,96450.31
